Time;durP1;ratioP1;P1;durP2;ratioP2;P2;SDS_P1;SDS_P2;PMS_P1;PMS_P2;Temp;Humidity;BMP_temperature;BMP_pressure;BME280_temperature;BME280_humidity;BME280_pressure;Samples;Min_cycle;Max_cycle;Signal;HPM_P1;HPM_P2
2022/08/10 00:02:36;;;;;;;0.70;0.50;;;;;;;29.71;38.64;99299.06;5153589;27;20095;-59
2022/08/10 00:05:02;;;;;;;0.50;0.40;;;;;;;29.72;38.67;99297.03;5153393;27;20043;-59
2022/08/10 00:07:28;;;;;;;1.05;0.60;;;;;;;29.72;38.59;99295.03;5153389;27;20043;-59
2022/08/10 00:09:53;;;;;;;1.13;0.43;;;;;;;29.72;38.64;99294.22;5153209;27;20043;-58
2022/08/10 00:12:18;;;;;;;0.52;0.45;;;;;;;29.73;38.49;99299.44;5153291;27;20043;-59
2022/08/10 00:14:44;;;;;;;0.60;0.40;;;;;;;29.72;38.21;99297.84;5153077;27;20043;-59
2022/08/10 00:17:10;;;;;;;0.63;0.47;;;;;;;29.73;38.44;99295.81;5152873;27;20105;-59
2022/08/10 00:19:35;;;;;;;0.82;0.52;;;;;;;29.71;38.67;99292.63;5152934;27;20058;-59
2022/08/10 00:22:01;;;;;;;0.65;0.57;;;;;;;29.71;38.25;99293.41;5152887;27;20553;-59
2022/08/10 00:24:26;;;;;;;0.55;0.50;;;;;;;29.71;38.40;99293.41;5153002;27;20047;-59
2022/08/10 00:26:51;;;;;;;0.63;0.45;;;;;;;29.74;38.46;99297.41;5152915;27;20451;-59
2022/08/10 00:29:17;;;;;;;0.90;0.57;;;;;;;29.74;38.47;99303.03;5115777;27;20051;-59
2022/08/10 00:31:42;;;;;;;0.80;0.50;;;;;;;29.72;38.54;99305.47;5111727;28;20040;-57
2022/08/10 00:34:08;;;;;;;0.40;0.40;;;;;;;29.73;38.47;99309.91;5111497;28;20449;-56
2022/08/10 00:36:33;;;;;;;0.47;0.45;;;;;;;29.72;38.63;99300.66;5111586;28;20047;-57
2022/08/10 00:38:58;;;;;;;0.98;0.60;;;;;;;29.73;38.32;99310.72;5111492;28;20043;-57
2022/08/10 00:41:24;;;;;;;1.10;0.50;;;;;;;29.72;38.40;99299.84;5111568;28;20130;-56
2022/08/10 00:43:49;;;;;;;0.95;0.60;;;;;;;29.73;38.44;99305.06;5111600;28;20564;-57
2022/08/10 00:46:14;;;;;;;0.55;0.50;;;;;;;29.73;38.35;99309.91;5111528;28;20088;-57
2022/08/10 00:48:40;;;;;;;0.55;0.50;;;;;;;29.72;38.25;99311.94;5111393;28;20048;-56
2022/08/10 00:51:05;;;;;;;0.95;0.50;;;;;;;29.71;38.41;99309.53;5111361;28;20056;-56
2022/08/10 00:53:31;;;;;;;0.68;0.50;;;;;;;29.74;38.34;99311.50;5111463;28;20105;-56
2022/08/10 00:55:56;;;;;;;0.70;0.50;;;;;;;29.73;38.58;99305.06;5111311;28;20572;-57
2022/08/10 00:58:22;;;;;;;0.40;0.40;;;;;;;29.72;38.68;99309.13;5111100;28;20056;-56
2022/08/10 01:00:47;;;;;;;0.52;0.50;;;;;;;29.72;38.51;99300.66;5111290;28;20048;-57
2022/08/10 01:03:14;;;;;;;0.60;0.50;;;;;;;29.72;38.77;99303.50;5111140;28;20039;-57
2022/08/10 01:05:46;;;;;;;0.82;0.60;;;;;;;29.72;38.33;99305.47;5110889;28;20059;-57
2022/08/10 01:08:19;;;;;;;1.00;0.60;;;;;;;29.74;38.38;99309.47;5110995;28;20351;-59
2022/08/10 01:11:19;;;;;;;1.02;0.63;;;;;;;29.70;38.57;99300.28;5111002;28;20055;-59
2022/08/10 01:14:30;;;;;;;1.05;0.60;;;;;;;29.73;38.47;99301.47;5111104;28;20071;-59
2022/08/10 01:17:01;;;;;;;0.77;0.50;;;;;;;29.73;38.72;99312.75;5078199;28;20054;-59
2022/08/10 01:19:36;;;;;;;0.68;0.50;;;;;;;29.73;38.55;99307.09;5111069;28;20505;-59
2022/08/10 01:22:19;;;;;;;0.85;0.60;;;;;;;29.71;38.83;99307.50;5107399;28;20495;-59
2022/08/10 01:25:21;;;;;;;0.60;0.40;;;;;;;29.72;38.56;99316.75;5110991;28;20406;-59
2022/08/10 01:28:12;;;;;;;0.50;0.45;;;;;;;29.71;38.87;99315.97;5110379;28;20044;-59
2022/08/10 01:30:39;;;;;;;0.93;0.60;;;;;;;29.72;38.49;99308.31;5110836;28;20040;-59
2022/08/10 01:33:17;;;;;;;0.43;0.40;;;;;;;29.70;38.69;99313.59;5110851;28;20054;-59
2022/08/10 01:35:52;;;;;;;0.40;0.40;;;;;;;29.71;38.52;99315.19;5110914;28;20050;-59
2022/08/10 01:38:25;;;;;;;0.65;0.50;;;;;;;29.71;38.82;99310.34;5110475;28;20047;-58
2022/08/10 01:40:55;;;;;;;0.63;0.52;;;;;;;29.72;38.83;99314.75;5110533;28;20172;-59
2022/08/10 01:43:24;;;;;;;0.77;0.60;;;;;;;29.71;38.81;99313.16;5110670;28;20415;-58
2022/08/10 01:45:54;;;;;;;0.70;0.50;;;;;;;29.71;38.51;99309.53;5110482;28;20522;-59
2022/08/10 01:48:29;;;;;;;0.63;0.50;;;;;;;29.71;38.56;99315.19;5110423;28;20426;-59
2022/08/10 01:51:07;;;;;;;0.52;0.47;;;;;;;29.73;38.56;99321.19;5110464;28;20427;-59
2022/08/10 01:54:00;;;;;;;0.93;0.50;;;;;;;29.72;38.44;99319.59;5110461;28;20039;-59
2022/08/10 01:56:30;;;;;;;0.40;0.40;;;;;;;29.73;38.80;99324.00;5099962;28;20079;-59
2022/08/10 01:59:01;;;;;;;0.73;0.50;;;;;;;29.72;38.82;99320.41;5110231;28;20099;-59
2022/08/10 02:01:35;;;;;;;0.50;0.50;;;;;;;29.72;38.79;99320.41;5110357;28;20374;-59
2022/08/10 02:04:08;;;;;;;0.65;0.40;;;;;;;29.72;38.58;99328.03;5110167;28;20394;-59
2022/08/10 02:06:46;;;;;;;0.52;0.45;;;;;;;29.72;38.90;99325.22;5110296;28;20399;-59
2022/08/10 02:09:20;;;;;;;0.77;0.50;;;;;;;29.72;38.77;99322.41;5110214;28;20423;-59
2022/08/10 02:11:47;;;;;;;0.40;0.40;;;;;;;29.71;38.43;99321.59;5109869;28;20419;-60
2022/08/10 02:14:16;;;;;;;0.98;0.60;;;;;;;29.73;38.46;99332.47;5110107;28;20043;-60
2022/08/10 02:16:44;;;;;;;0.50;0.50;;;;;;;29.73;38.57;99335.28;5109962;28;20123;-59
2022/08/10 02:19:13;;;;;;;0.45;0.40;;;;;;;29.72;38.82;99330.84;5110182;28;20036;-58
2022/08/10 02:21:42;;;;;;;0.60;0.43;;;;;;;29.73;38.55;99338.91;5110205;28;20044;-59
2022/08/10 02:24:12;;;;;;;0.80;0.52;;;;;;;29.71;38.97;99335.72;5110000;28;20068;-59
2022/08/10 02:26:40;;;;;;;0.75;0.60;;;;;;;29.72;38.72;99342.97;5110019;28;20047;-59
2022/08/10 02:29:08;;;;;;;0.47;0.40;;;;;;;29.72;38.89;99339.31;5110106;28;20059;-59
2022/08/10 02:31:36;;;;;;;0.88;0.55;;;;;;;29.73;38.44;99338.91;5110012;28;20130;-59
2022/08/10 02:34:02;;;;;;;0.57;0.50;;;;;;;29.72;38.52;99336.50;5109855;28;20043;-59
2022/08/10 02:36:31;;;;;;;0.57;0.32;;;;;;;29.75;38.85;99344.09;5109731;28;20177;-59
2022/08/10 02:39:00;;;;;;;0.57;0.50;;;;;;;29.75;38.80;99346.91;5110975;28;20430;-59
2022/08/10 02:41:39;;;;;;;0.93;0.50;;;;;;;29.76;38.54;99348.50;5113349;28;20050;-58
2022/08/10 02:44:09;;;;;;;0.40;0.38;;;;;;;29.76;38.94;99346.47;5113284;28;20043;-59
2022/08/10 02:46:40;;;;;;;0.57;0.50;;;;;;;29.76;38.67;99345.69;5113234;28;20047;-59
2022/08/10 02:49:13;;;;;;;0.50;0.40;;;;;;;29.76;38.57;99352.09;5113481;28;20048;-59
2022/08/10 02:51:45;;;;;;;0.70;0.50;;;;;;;29.77;38.70;99342.41;5113413;28;20410;-59
2022/08/10 02:54:19;;;;;;;0.73;0.45;;;;;;;29.77;38.91;99339.59;5113386;28;20131;-59
2022/08/10 02:57:17;;;;;;;0.73;0.50;;;;;;;29.79;38.45;99350.44;5113229;28;20055;-59
2022/08/10 02:59:52;;;;;;;0.82;0.52;;;;;;;29.80;38.39;99349.22;5113292;28;20512;-59
2022/08/10 03:02:42;;;;;;;0.90;0.60;;;;;;;29.80;38.58;99346.41;5113138;28;20550;-59
2022/08/10 03:05:15;;;;;;;0.50;0.50;;;;;;;29.79;38.67;99345.63;5113064;28;20040;-58
2022/08/10 03:07:54;;;;;;;0.38;0.38;;;;;;;29.75;38.50;99332.81;5113040;28;20035;-59
2022/08/10 03:10:22;;;;;;;0.82;0.52;;;;;;;29.80;38.81;99343.59;5112929;28;20039;-59
2022/08/10 03:12:51;;;;;;;0.40;0.40;;;;;;;29.80;38.63;99346.41;5112742;28;20058;-59
2022/08/10 03:15:19;;;;;;;0.73;0.55;;;;;;;29.80;38.47;99346.41;5112905;28;20522;-59
2022/08/10 03:17:46;;;;;;;0.70;0.52;;;;;;;29.79;38.48;99345.63;5112859;28;20039;-59
2022/08/10 03:20:14;;;;;;;0.52;0.40;;;;;;;29.79;38.45;99351.25;5112966;28;20499;-59
2022/08/10 03:22:41;;;;;;;0.77;0.60;;;;;;;29.81;38.82;99348.00;5112720;28;20052;-59
2022/08/10 03:25:09;;;;;;;0.57;0.50;;;;;;;29.81;38.44;99348.00;5112701;28;20081;-59
2022/08/10 03:27:35;;;;;;;0.70;0.50;;;;;;;29.81;38.51;99351.59;5112818;28;20051;-59
2022/08/10 03:30:01;;;;;;;0.50;0.50;;;;;;;29.80;38.75;99340.75;5112517;28;20377;-59
2022/08/10 03:32:27;;;;;;;0.93;0.60;;;;;;;29.81;38.41;99342.34;5112889;28;20092;-59
2022/08/10 03:34:53;;;;;;;0.55;0.40;;;;;;;29.81;38.44;99348.00;5112587;28;20047;-59
2022/08/10 03:37:19;;;;;;;1.33;0.90;;;;;;;29.82;38.74;99347.53;5112554;28;20044;-59
2022/08/10 03:39:44;;;;;;;0.88;0.57;;;;;;;29.80;38.36;99352.03;5112650;28;20047;-59
2022/08/10 03:42:11;;;;;;;0.90;0.50;;;;;;;29.82;38.57;99349.56;5112369;28;20040;-59
2022/08/10 03:44:40;;;;;;;0.88;0.60;;;;;;;29.83;38.83;99354.75;5112311;28;20450;-59
2022/08/10 03:47:08;;;;;;;0.70;0.50;;;;;;;29.82;38.50;99356.00;5112518;28;20044;-59
2022/08/10 03:49:37;;;;;;;0.80;0.50;;;;;;;29.82;38.57;99356.00;5111700;28;20051;-59
2022/08/10 03:52:05;;;;;;;0.63;0.40;;;;;;;29.81;38.82;99351.59;5112542;28;20284;-59
2022/08/10 03:54:31;;;;;;;1.67;0.50;;;;;;;29.83;38.60;99363.22;5112462;28;20043;-59
2022/08/10 03:56:56;;;;;;;0.70;0.50;;;;;;;29.83;38.40;99357.59;5112098;28;20453;-59
2022/08/10 03:59:22;;;;;;;0.93;0.45;;;;;;;29.82;38.76;99358.81;5112159;28;20126;-59
2022/08/10 04:01:50;;;;;;;0.68;0.50;;;;;;;29.84;38.66;99361.19;5112056;28;20089;-59
2022/08/10 04:04:16;;;;;;;1.13;0.50;;;;;;;29.82;38.44;99369.31;5112121;28;20411;-59
2022/08/10 04:06:41;;;;;;;0.98;0.60;;;;;;;29.85;38.35;99354.31;5112061;28;20039;-59
2022/08/10 04:09:08;;;;;;;0.75;0.60;;;;;;;29.82;38.50;99366.50;5112170;28;20047;-57
2022/08/10 04:11:35;;;;;;;0.50;0.50;;;;;;;29.83;38.49;99357.59;5112111;28;20104;-57
2022/08/10 04:14:02;;;;;;;0.50;0.50;;;;;;;29.85;38.79;99357.13;5112041;28;20477;-56
2022/08/10 04:16:27;;;;;;;0.70;0.60;;;;;;;29.84;38.79;99358.38;5112240;28;20502;-57
2022/08/10 04:18:52;;;;;;;0.98;0.60;;;;;;;29.83;38.57;99359.63;5112000;28;20040;-57
2022/08/10 04:21:30;;;;;;;0.40;0.40;;;;;;;29.84;38.44;99370.44;5111745;28;20047;-57
2022/08/10 04:23:59;;;;;;;0.35;0.35;;;;;;;29.85;38.64;99359.97;5112001;28;20075;-57
2022/08/10 04:26:25;;;;;;;0.50;0.40;;;;;;;29.85;38.70;99359.97;5111768;28;20047;-57
2022/08/10 04:28:52;;;;;;;0.77;0.50;;;;;;;29.84;38.66;99358.38;5111796;28;20456;-57
2022/08/10 04:31:18;;;;;;;0.80;0.40;;;;;;;29.83;38.51;99370.88;5111675;28;20058;-56
2022/08/10 04:33:49;;;;;;;0.70;0.50;;;;;;;29.85;38.36;99369.22;5111511;28;20050;-57
2022/08/10 04:36:17;;;;;;;0.43;0.40;;;;;;;29.85;38.47;99374.06;5111581;28;20039;-56
2022/08/10 04:38:45;;;;;;;0.68;0.50;;;;;;;29.84;38.64;99373.28;5111502;28;20040;-56
2022/08/10 04:41:10;;;;;;;0.80;0.43;;;;;;;29.85;38.37;99374.06;5111708;28;20108;-57
2022/08/10 04:43:36;;;;;;;0.50;0.47;;;;;;;29.86;38.33;99378.47;5111531;28;20047;-57
2022/08/10 04:46:02;;;;;;;0.70;0.50;;;;;;;29.85;38.62;99388.16;5111376;28;20537;-57
2022/08/10 04:48:27;;;;;;;0.57;0.40;;;;;;;29.86;38.41;99378.47;5111472;28;20039;-57
2022/08/10 04:50:52;;;;;;;0.50;0.50;;;;;;;29.84;38.22;99384.53;5111337;28;20184;-57
2022/08/10 04:53:18;;;;;;;0.63;0.43;;;;;;;29.85;38.36;99386.13;5111289;28;20044;-57
2022/08/10 04:55:43;;;;;;;0.80;0.50;;;;;;;29.83;38.69;99387.81;5111349;28;20048;-57
2022/08/10 04:58:09;;;;;;;0.65;0.55;;;;;;;29.84;38.46;99397.84;5111266;28;20078;-56
2022/08/10 05:00:34;;;;;;;0.50;0.45;;;;;;;29.84;38.64;99390.19;5111123;28;20047;-57
2022/08/10 05:03:00;;;;;;;1.05;0.52;;;;;;;29.85;38.78;99399.44;5110415;28;20043;-56
2022/08/10 05:05:25;;;;;;;0.50;0.50;;;;;;;29.85;38.81;99400.22;5111181;28;20048;-56
2022/08/10 05:07:51;;;;;;;0.65;0.43;;;;;;;29.86;38.42;99401.84;5110848;28;20123;-56
2022/08/10 05:10:17;;;;;;;0.73;0.50;;;;;;;29.84;38.44;99398.66;5111231;28;20039;-57
2022/08/10 05:12:42;;;;;;;0.98;0.65;;;;;;;29.86;38.69;99413.13;5110969;28;20452;-57
2022/08/10 05:15:11;;;;;;;0.30;0.30;;;;;;;29.83;38.61;99401.91;5110917;28;20063;-57
2022/08/10 05:17:38;;;;;;;0.50;0.50;;;;;;;29.86;38.73;99401.84;5110769;28;20069;-56
2022/08/10 05:20:05;;;;;;;0.50;0.40;;;;;;;29.85;38.60;99399.44;5110872;28;20039;-57
2022/08/10 05:22:35;;;;;;;0.43;0.40;;;;;;;29.86;38.40;99406.66;5110633;28;20104;-56
2022/08/10 05:25:00;;;;;;;0.50;0.40;;;;;;;29.86;38.25;99407.47;5110898;28;20083;-57
2022/08/10 05:27:25;;;;;;;0.60;0.50;;;;;;;29.86;38.50;99415.94;5111021;28;20120;-57
2022/08/10 05:29:51;;;;;;;0.50;0.47;;;;;;;29.86;38.36;99406.66;5110756;28;20040;-57
2022/08/10 05:32:16;;;;;;;0.45;0.40;;;;;;;29.86;38.81;99407.47;5110533;28;20088;-56
2022/08/10 05:34:42;;;;;;;0.63;0.43;;;;;;;29.84;38.61;99407.09;5110473;28;20057;-57
2022/08/10 05:37:08;;;;;;;0.82;0.60;;;;;;;29.86;38.28;99407.47;5110451;28;20462;-57
2022/08/10 05:39:35;;;;;;;0.57;0.40;;;;;;;29.85;38.32;99399.44;5110812;28;20050;-57
2022/08/10 05:42:00;;;;;;;0.55;0.50;;;;;;;29.86;38.31;99398.19;5110830;28;20044;-56
2022/08/10 05:44:26;;;;;;;0.68;0.45;;;;;;;29.83;38.29;99393.44;5110607;28;20108;-56
2022/08/10 05:46:51;;;;;;;0.95;0.55;;;;;;;29.87;38.62;99399.81;5110598;28;20501;-56
2022/08/10 05:49:17;;;;;;;0.52;0.40;;;;;;;29.87;38.46;99406.25;5110527;28;20047;-56
2022/08/10 05:51:43;;;;;;;0.57;0.45;;;;;;;29.85;38.55;99408.69;5110535;28;20044;-57
2022/08/10 05:54:14;;;;;;;0.50;0.50;;;;;;;29.86;38.46;99413.13;5110373;28;20039;-57
2022/08/10 05:56:42;;;;;;;0.50;0.40;;;;;;;29.86;38.77;99409.47;5110312;28;20054;-56
2022/08/10 05:59:10;;;;;;;0.60;0.50;;;;;;;29.85;38.59;99399.44;5110287;28;20660;-57
2022/08/10 06:01:40;;;;;;;0.50;0.50;;;;;;;29.88;38.87;99407.03;5110397;28;20051;-57
2022/08/10 06:04:08;;;;;;;0.50;0.50;;;;;;;29.72;38.43;99412.63;5110241;28;20052;-56
2022/08/10 06:06:35;;;;;;;0.65;0.50;;;;;;;29.55;38.42;99415.41;5110310;28;20040;-57
2022/08/10 06:09:01;;;;;;;0.90;0.60;;;;;;;29.40;39.66;99416.91;5110222;28;20040;-57
2022/08/10 06:11:29;;;;;;;0.73;0.47;;;;;;;29.24;39.86;99416.81;5110330;28;20530;-56
2022/08/10 06:16:42;;;;;;;0.93;0.40;;;;;;;29.07;40.18;99415.94;5110158;28;20126;-56
2022/08/10 06:19:09;;;;;;;0.55;0.50;;;;;;;29.03;39.12;99424.47;5109939;28;20574;-57
2022/08/10 06:21:35;;;;;;;0.82;0.50;;;;;;;29.00;39.81;99414.03;5109974;28;20035;-57
2022/08/10 06:24:02;;;;;;;0.68;0.50;;;;;;;28.89;40.61;99413.44;5110146;28;20046;-56
2022/08/10 06:26:27;;;;;;;0.45;0.43;;;;;;;28.81;40.34;99417.59;5109922;28;20490;-56
2022/08/10 06:29:01;;;;;;;0.40;0.40;;;;;;;28.79;40.66;99423.69;5109830;28;20067;-56
2022/08/10 06:31:28;;;;;;;0.60;0.50;;;;;;;28.81;40.84;99420.41;5109903;28;20035;-57
2022/08/10 06:33:56;;;;;;;0.52;0.40;;;;;;;28.81;39.77;99423.25;5110065;28;20078;-57
2022/08/10 06:36:24;;;;;;;0.50;0.40;;;;;;;28.80;39.97;99416.03;5109892;28;20172;-56
2022/08/10 06:38:51;;;;;;;0.60;0.50;;;;;;;28.76;40.74;99412.47;5109642;28;20048;-56
2022/08/10 06:41:22;;;;;;;0.68;0.47;;;;;;;28.74;40.75;99414.91;5109740;28;20032;-56
2022/08/10 06:43:59;;;;;;;0.73;0.50;;;;;;;28.70;40.42;99412.16;5109767;28;20047;-57
2022/08/10 06:46:26;;;;;;;0.55;0.50;;;;;;;28.70;40.62;99411.38;5109743;28;20046;-57
2022/08/10 06:48:56;;;;;;;0.93;0.50;;;;;;;28.72;40.51;99412.53;5109504;28;20039;-56
2022/08/10 06:51:35;;;;;;;0.40;0.40;;;;;;;28.79;40.27;99414.41;5109803;28;20056;-57
2022/08/10 06:54:04;;;;;;;0.40;0.40;;;;;;;28.82;40.04;99407.94;5109463;28;20134;-57
2022/08/10 06:56:33;;;;;;;0.30;0.30;;;;;;;28.84;39.99;99405.47;5109615;28;20048;-56
2022/08/10 06:59:10;;;;;;;0.45;0.40;;;;;;;28.80;39.85;99404.75;5109436;28;20452;-56
2022/08/10 07:01:38;;;;;;;0.60;0.60;;;;;;;28.82;39.71;99398.69;5109542;28;20036;-56
2022/08/10 07:04:21;;;;;;;0.90;0.60;;;;;;;28.82;39.72;99416.38;5109401;28;20512;-56
2022/08/10 07:06:49;;;;;;;0.60;0.50;;;;;;;28.82;39.70;99407.94;5109594;28;20039;-57
2022/08/10 07:09:16;;;;;;;0.88;0.55;;;;;;;28.80;39.74;99407.56;5109320;28;20127;-56
2022/08/10 07:11:47;;;;;;;0.70;0.60;;;;;;;28.77;39.28;99400.78;5109462;28;20046;-56
2022/08/10 07:14:16;;;;;;;0.57;0.50;;;;;;;28.81;39.33;99403.53;5109365;28;20106;-56
2022/08/10 07:16:44;;;;;;;0.88;0.50;;;;;;;28.82;39.56;99399.47;5109438;28;20657;-59
2022/08/10 07:19:11;;;;;;;0.35;0.35;;;;;;;28.81;39.54;99403.53;5109171;28;20079;-59
2022/08/10 07:21:40;;;;;;;0.63;0.52;;;;;;;28.78;39.25;99398.75;5109277;28;20097;-59
2022/08/10 07:24:09;;;;;;;0.40;0.40;;;;;;;28.79;39.17;99395.53;5109368;28;20055;-59
2022/08/10 07:26:36;;;;;;;0.60;0.50;;;;;;;28.79;39.04;99392.72;5112578;28;20043;-59
2022/08/10 07:29:04;;;;;;;0.47;0.47;;;;;;;28.81;38.99;99389.47;5112521;28;20035;-58
2022/08/10 07:31:30;;;;;;;1.02;0.50;;;;;;;28.81;38.95;99383.81;5112509;28;20078;-59
2022/08/10 07:33:58;;;;;;;0.50;0.43;;;;;;;28.78;38.82;99382.66;5112430;28;20100;-59
2022/08/10 07:36:25;;;;;;;1.02;0.60;;;;;;;28.79;39.09;99389.88;5112325;28;20426;-59
2022/08/10 07:38:54;;;;;;;0.70;0.50;;;;;;;28.77;38.89;99388.72;5112388;28;20109;-59
2022/08/10 07:41:22;;;;;;;0.60;0.40;;;;;;;28.76;38.96;99387.13;5112602;28;20035;-59
2022/08/10 07:43:49;;;;;;;0.65;0.60;;;;;;;28.79;38.97;99383.44;5112533;28;20047;-59
2022/08/10 07:46:18;;;;;;;0.80;0.60;;;;;;;28.79;38.84;99387.06;5112487;28;20054;-59
2022/08/10 07:48:53;;;;;;;0.52;0.43;;;;;;;28.73;38.84;99379.56;5112378;28;20078;-59
2022/08/10 07:51:21;;;;;;;0.63;0.50;;;;;;;28.73;38.81;99380.34;5112378;28;20047;-59
2022/08/10 07:53:52;;;;;;;0.90;0.50;;;;;;;28.73;38.68;99383.16;5112132;28;20039;-59
2022/08/10 07:56:23;;;;;;;0.50;0.40;;;;;;;28.76;38.40;99368.22;5112650;28;20043;-59
2022/08/10 07:58:56;;;;;;;0.52;0.40;;;;;;;28.76;38.58;99370.25;5112130;28;20130;-59
2022/08/10 08:01:27;;;;;;;0.75;0.50;;;;;;;28.76;38.64;99367.41;5112110;28;20411;-59
2022/08/10 08:03:54;;;;;;;0.50;0.40;;;;;;;28.75;38.34;99369.44;5112305;28;20036;-59
2022/08/10 08:06:21;;;;;;;0.60;0.50;;;;;;;28.75;38.45;99368.66;5112209;28;20050;-59
2022/08/10 08:08:48;;;;;;;0.82;0.40;;;;;;;28.75;38.45;99361.00;5112158;28;20035;-59
2022/08/10 08:11:14;;;;;;;0.60;0.50;;;;;;;28.75;38.25;99360.22;5112130;28;20393;-59
2022/08/10 08:13:40;;;;;;;0.50;0.50;;;;;;;28.76;38.58;99361.78;5111992;28;20044;-59
2022/08/10 08:16:06;;;;;;;0.90;0.50;;;;;;;28.73;38.85;99357.81;5112140;28;20046;-59
2022/08/10 08:18:35;;;;;;;0.57;0.47;;;;;;;28.72;38.97;99358.22;5111702;28;20130;-59
2022/08/10 08:21:01;;;;;;;0.57;0.52;;;;;;;28.70;39.10;99355.06;5111549;28;20055;-59
2022/08/10 08:23:28;;;;;;;0.57;0.50;;;;;;;28.71;39.51;99357.44;5111765;28;20035;-59
2022/08/10 08:25:55;;;;;;;0.50;0.40;;;;;;;28.65;39.35;99355.59;5111795;28;20047;-58
2022/08/10 08:28:21;;;;;;;0.50;0.50;;;;;;;28.70;39.25;99349.44;5119167;28;20051;-59
2022/08/10 08:30:48;;;;;;;0.98;0.55;;;;;;;28.72;39.45;99350.63;5132237;28;20051;-59
2022/08/10 08:33:16;;;;;;;0.63;0.50;;;;;;;28.77;39.20;99347.28;5132234;28;20039;-59
2022/08/10 08:35:44;;;;;;;0.45;0.40;;;;;;;28.80;39.17;99345.63;5132093;27;20043;-59
2022/08/10 08:38:11;;;;;;;0.47;0.38;;;;;;;28.84;39.22;99345.56;5131966;28;20437;-59
2022/08/10 08:40:41;;;;;;;0.57;0.50;;;;;;;28.79;38.97;99342.03;5132124;28;20054;-59
2022/08/10 08:43:31;;;;;;;0.88;0.60;;;;;;;28.83;38.95;99346.78;5132015;28;20039;-59
2022/08/10 08:46:27;;;;;;;0.40;0.40;;;;;;;28.82;39.23;99346.00;5132229;28;20091;-59
2022/08/10 08:48:53;;;;;;;0.70;0.52;;;;;;;28.87;39.00;99348.31;5132052;28;20418;-59
2022/08/10 08:51:36;;;;;;;0.60;0.40;;;;;;;28.88;39.02;99338.63;5131912;28;20050;-59
2022/08/10 08:54:11;;;;;;;0.95;0.52;;;;;;;28.86;39.13;99349.53;5131986;28;20049;-59
2022/08/10 08:56:45;;;;;;;0.50;0.40;;;;;;;28.86;38.96;99335.44;5131883;28;20039;-59
2022/08/10 08:59:22;;;;;;;0.77;0.50;;;;;;;28.90;39.13;99339.00;5131729;28;20039;-59
2022/08/10 09:02:26;;;;;;;1.05;0.60;;;;;;;28.89;38.77;99334.59;5131736;28;20176;-59
2022/08/10 09:05:10;;;;;;;0.50;0.45;;;;;;;28.92;38.80;99339.38;5087169;28;20043;-59
2022/08/10 09:07:57;;;;;;;1.23;0.50;;;;;;;28.90;39.01;99335.38;5131848;28;20043;-59
2022/08/10 09:10:38;;;;;;;0.40;0.40;;;;;;;28.89;39.08;99331.78;5131667;28;20055;-59
2022/08/10 09:13:25;;;;;;;0.70;0.50;;;;;;;28.87;39.03;99331.44;5131562;28;20410;-59
2022/08/10 09:16:19;;;;;;;0.90;0.50;;;;;;;28.87;39.08;99331.44;5131816;28;20141;-59
2022/08/10 09:18:52;;;;;;;0.63;0.40;;;;;;;28.90;39.03;99327.72;5127224;28;20058;-59
2022/08/10 09:21:35;;;;;;;0.90;0.50;;;;;;;28.87;38.49;99331.44;5131164;28;20407;-59
2022/08/10 09:24:27;;;;;;;0.45;0.30;;;;;;;28.82;38.71;99329.09;5131361;28;20130;-59
2022/08/10 09:26:55;;;;;;;0.50;0.40;;;;;;;28.74;39.08;99319.22;5119537;28;20506;-59
2022/08/10 09:29:32;;;;;;;0.40;0.40;;;;;;;28.68;39.12;99318.13;5131500;28;20039;-59
2022/08/10 09:32:09;;;;;;;0.68;0.50;;;;;;;28.67;39.26;99316.53;5131181;28;20499;-59
2022/08/10 09:35:10;;;;;;;1.20;0.60;;;;;;;28.70;39.22;99318.47;5113193;28;20054;-59
2022/08/10 09:37:43;;;;;;;0.47;0.40;;;;;;;28.74;39.11;99307.94;5098434;28;20047;-59
2022/08/10 09:40:23;;;;;;;1.75;0.40;;;;;;;28.75;38.97;99306.72;5131310;28;20529;-59
2022/08/10 09:42:57;;;;;;;0.63;0.50;;;;;;;28.77;39.04;99298.63;5131016;28;20138;-59
2022/08/10 09:45:35;;;;;;;0.57;0.40;;;;;;;28.77;39.06;99293.00;5131158;28;20043;-59
2022/08/10 09:48:21;;;;;;;0.95;0.50;;;;;;;28.81;39.07;99296.56;5130478;27;20042;-59
2022/08/10 09:51:02;;;;;;;0.70;0.50;;;;;;;28.84;38.90;99294.88;5130879;28;20046;-59
2022/08/10 09:53:49;;;;;;;0.40;0.30;;;;;;;28.78;38.09;99292.56;5131014;28;20054;-59
2022/08/10 09:56:51;;;;;;;0.60;0.40;;;;;;;28.78;39.18;99286.13;5130945;28;20514;-59
2022/08/10 09:59:29;;;;;;;0.82;0.47;;;;;;;28.71;39.28;99287.06;5130686;28;20055;-59
2022/08/10 10:02:01;;;;;;;0.50;0.40;;;;;;;28.73;39.32;99281.03;5130877;28;20043;-59
2022/08/10 10:04:39;;;;;;;0.57;0.40;;;;;;;28.73;39.30;99283.84;5130944;28;20138;-59
2022/08/10 10:07:07;;;;;;;0.45;0.40;;;;;;;28.76;39.22;99283.75;5130742;28;20043;-59
2022/08/10 10:09:38;;;;;;;0.30;0.30;;;;;;;28.78;39.14;99286.13;5130628;28;20058;-59
2022/08/10 10:12:10;;;;;;;0.50;0.40;;;;;;;28.82;39.19;99277.63;5130382;28;20134;-59
2022/08/10 10:17:56;;;;;;;0.55;0.40;;;;;;;28.78;39.03;99270.03;5130728;28;20143;-59
2022/08/10 10:20:43;;;;;;;0.85;0.40;;;;;;;28.72;39.37;99266.16;5130446;28;20080;-59
2022/08/10 10:23:26;;;;;;;0.77;0.50;;;;;;;28.68;39.23;99262.63;5130147;28;20475;-59
2022/08/10 10:25:58;;;;;;;0.88;0.55;;;;;;;28.72;39.27;99259.72;5130401;28;20043;-59
2022/08/10 10:28:33;;;;;;;0.93;0.50;;;;;;;28.76;39.36;99257.63;5130450;28;20498;-59
2022/08/10 10:31:16;;;;;;;0.50;0.40;;;;;;;28.78;39.14;99249.53;5130459;28;20130;-59
2022/08/10 10:34:01;;;;;;;0.40;0.40;;;;;;;28.75;38.38;99245.59;5130419;28;20044;-59
2022/08/10 10:36:27;;;;;;;0.55;0.40;;;;;;;28.71;39.25;99247.66;5128495;28;20513;-59
2022/08/10 10:38:56;;;;;;;0.40;0.40;;;;;;;28.69;39.37;99243.72;5130481;28;20467;-59
2022/08/10 10:41:29;;;;;;;0.60;0.60;;;;;;;28.65;39.51;99245.81;5130418;28;20259;-59
2022/08/10 10:44:11;;;;;;;0.70;0.50;;;;;;;28.67;39.39;99238.50;5130280;28;20086;-59
2022/08/10 10:47:02;;;;;;;0.45;0.43;;;;;;;28.73;39.21;99241.63;5130228;28;20054;-59
2022/08/10 10:49:48;;;;;;;1.08;0.40;;;;;;;28.74;39.19;99235.56;5130285;28;20103;-59
2022/08/10 10:52:45;;;;;;;0.57;0.43;;;;;;;28.79;39.08;99239.88;5130333;28;20039;-59
2022/08/10 10:55:29;;;;;;;0.82;0.52;;;;;;;28.81;38.62;99231.81;5130261;28;20050;-59
2022/08/10 10:58:05;;;;;;;0.47;0.30;;;;;;;28.75;38.44;99233.53;5128890;28;20087;-59
2022/08/10 11:01:08;;;;;;;0.65;0.50;;;;;;;28.68;39.29;99223.22;5128380;27;20100;-59
2022/08/10 11:03:42;;;;;;;0.52;0.40;;;;;;;28.66;39.20;99219.25;5119074;28;20045;-59
2022/08/10 11:06:35;;;;;;;0.38;0.30;;;;;;;28.69;39.28;99215.56;5133525;28;20422;-59
2022/08/10 11:09:07;;;;;;;0.40;0.40;;;;;;;28.72;39.37;99212.69;5133674;28;20039;-59
2022/08/10 11:11:40;;;;;;;0.55;0.40;;;;;;;28.75;39.22;99206.19;5133667;28;20420;-58
2022/08/10 11:14:24;;;;;;;;;;;;;;;28.86;38.70;99202.31;5134220;28;20050;-59
2022/08/10 11:16:59;;;;;;;0.52;0.40;;;;;;;28.77;38.00;99200.09;5133469;28;20383;-59
2022/08/10 11:19:47;;;;;;;0.40;0.40;;;;;;;28.70;39.10;99200.25;5133312;28;20134;-59
2022/08/10 11:22:36;;;;;;;0.50;0.40;;;;;;;28.67;39.38;99192.69;5133450;28;20043;-59
2022/08/10 11:25:07;;;;;;;0.45;0.40;;;;;;;28.68;39.22;99189.44;5049534;28;20053;-59
2022/08/10 11:27:53;;;;;;;1.00;0.40;;;;;;;28.69;39.01;99187.41;5049859;28;20041;-59
2022/08/10 11:30:27;;;;;;;0.43;0.40;;;;;;;28.73;38.88;99182.50;5049845;28;20056;-59
2022/08/10 11:33:14;;;;;;;0.50;0.45;;;;;;;28.75;38.91;99180.84;5049873;28;20049;-59
2022/08/10 11:35:47;;;;;;;0.60;0.43;;;;;;;28.79;39.03;99177.94;5049598;28;20079;-59
2022/08/10 11:38:31;;;;;;;0.73;0.55;;;;;;;28.79;38.81;99175.13;5049611;28;20056;-59
2022/08/10 11:41:02;;;;;;;0.88;0.52;;;;;;;28.85;38.76;99172.59;5049536;28;20052;-59
2022/08/10 11:43:28;;;;;;;0.55;0.40;;;;;;;28.78;37.85;99156.66;5049560;28;20049;-59
2022/08/10 11:46:04;;;;;;;0.73;0.50;;;;;;;28.73;38.57;99162.81;5049617;28;20048;-59
2022/08/10 11:48:39;;;;;;;1.10;0.52;;;;;;;28.69;39.13;99153.63;5049576;28;20344;-58
2022/08/10 11:51:14;;;;;;;0.70;0.50;;;;;;;28.68;39.09;99154.88;5049565;28;20056;-59
2022/08/10 11:54:04;;;;;;;0.85;0.60;;;;;;;28.68;39.25;99149.25;5049518;28;20053;-59
2022/08/10 11:56:44;;;;;;;0.40;0.40;;;;;;;28.74;39.13;99141.88;5049454;28;20051;-59
2022/08/10 12:01:55;;;;;;;0.55;0.40;;;;;;;28.73;38.53;99137.47;5084238;28;20111;-59
2022/08/10 12:04:23;;;;;;;0.45;0.40;;;;;;;28.68;39.14;99132.34;5132692;28;20039;-59
2022/08/10 12:06:50;;;;;;;0.40;0.35;;;;;;;28.61;39.29;99127.66;5132778;28;20050;-59